Time;durP1;ratioP1;P1;durP2;ratioP2;P2;SDS_P1;SDS_P2;PMS_P1;PMS_P2;Temp;Humidity;BMP_temperature;BMP_pressure;BME280_temperature;BME280_humidity;BME280_pressure;Samples;Min_cycle;Max_cycle;Signal;HPM_P1;HPM_P2
2024/04/13 00:00:56;;;;;;;6.45;2.90;;;;;;;15.38;55.37;100137.06;4302628;33;33599;-86
2024/04/13 00:03:24;;;;;;;6.35;2.83;;;;;;;15.31;55.50;100136.13;4315491;33;33698;-85
2024/04/13 00:05:50;;;;;;;8.73;3.33;;;;;;;15.20;54.94;100139.50;4302398;33;33789;-86
2024/04/13 00:08:16;;;;;;;5.90;3.33;;;;;;;15.23;55.60;100142.16;4315592;33;34776;-86
2024/04/13 00:10:43;;;;;;;5.18;2.47;;;;;;;15.26;55.87;100131.72;4315141;33;33149;-85
2024/04/13 00:13:10;;;;;;;7.07;3.10;;;;;;;15.14;56.29;100137.69;4301901;33;34762;-85
2024/04/13 00:15:37;;;;;;;9.18;3.10;;;;;;;15.04;56.57;100133.25;4312244;33;33783;-86
2024/04/13 00:18:06;;;;;;;8.32;2.90;;;;;;;15.05;56.96;100138.50;4301240;33;34019;-87
2024/04/13 00:20:32;;;;;;;4.47;2.55;;;;;;;15.22;56.21;100127.31;4300838;33;32430;-87
2024/04/13 00:23:01;;;;;;;4.55;2.65;;;;;;;15.30;55.87;100128.25;4287032;33;33682;-86
2024/04/13 00:25:31;;;;;;;6.53;2.70;;;;;;;15.20;56.04;100121.22;4300909;33;33760;-88
2024/04/13 00:27:58;;;;;;;6.43;2.90;;;;;;;15.20;56.35;100118.59;4287852;33;33963;-87
2024/04/13 00:30:24;;;;;;;5.53;2.95;;;;;;;15.18;56.10;100113.34;4300844;33;33155;-87
2024/04/13 00:32:51;;;;;;;7.65;3.00;;;;;;;15.18;56.36;100113.34;4287645;33;33125;-87
2024/04/13 00:35:20;;;;;;;7.90;2.95;;;;;;;14.95;56.82;100115.75;4311319;33;34764;-87
2024/04/13 00:37:46;;;;;;;10.55;3.50;;;;;;;14.87;57.09;100112.19;4315050;33;33919;-86
2024/04/13 00:40:13;;;;;;;7.07;2.90;;;;;;;15.05;56.42;100109.75;4288063;33;33779;-86
2024/04/13 00:42:40;;;;;;;7.22;3.10;;;;;;;15.16;56.48;100103.78;4287707;33;33971;-87
2024/04/13 00:45:06;;;;;;;6.03;2.92;;;;;;;15.30;56.17;100102.13;4287790;33;34019;-86
2024/04/13 00:47:34;;;;;;;6.50;2.70;;;;;;;15.20;56.64;100109.03;4287345;33;32285;-87
2024/04/13 00:50:11;;;;;;;7.35;3.37;;;;;;;15.12;56.81;100092.41;4300685;33;33427;-86
2024/04/13 00:52:41;;;;;;;7.70;3.78;;;;;;;14.84;56.91;100106.91;4314800;33;33627;-86
2024/04/13 00:55:09;;;;;;;6.70;3.47;;;;;;;14.72;56.47;100101.56;4301456;33;33513;-87
2024/04/13 00:57:36;;;;;;;7.60;3.22;;;;;;;15.04;55.67;100104.53;4315110;33;33536;-87
2024/04/13 01:00:05;;;;;;;6.45;3.20;;;;;;;14.94;56.01;100106.16;4302180;33;34152;-86
2024/04/13 01:02:31;;;;;;;7.75;3.53;;;;;;;15.01;55.96;100107.97;4314105;33;34458;-86
2024/04/13 01:04:58;;;;;;;5.82;3.20;;;;;;;15.20;55.91;100110.78;4294830;33;78960;-87
2024/04/13 01:07:25;;;;;;;6.87;3.62;;;;;;;14.93;55.69;100101.81;4304116;33;34424;-86
2024/04/13 01:09:54;;;;;;;9.15;3.85;;;;;;;14.99;55.84;100106.19;4303963;33;33457;-86
2024/04/13 01:12:21;;;;;;;7.97;3.47;;;;;;;14.75;56.20;100099.00;4295012;33;34084;-86
2024/04/13 01:14:48;;;;;;;8.60;3.50;;;;;;;14.92;56.05;100100.03;4289963;33;32673;-85
2024/04/13 01:17:15;;;;;;;7.18;3.62;;;;;;;14.99;55.65;100099.25;4302507;33;34618;-86
2024/04/13 01:19:41;;;;;;;7.62;3.62;;;;;;;14.83;55.90;100094.72;4289261;33;33150;-87
2024/04/13 01:22:08;;;;;;;7.12;3.72;;;;;;;14.85;55.78;100093.03;4302892;33;33632;-86
2024/04/13 01:24:34;;;;;;;7.05;3.17;;;;;;;14.86;55.99;100093.91;4302580;33;33760;-86
2024/04/13 01:27:02;;;;;;;8.23;3.42;;;;;;;15.08;55.25;100085.41;4289454;33;33164;-88
2024/04/13 01:29:28;;;;;;;7.87;3.42;;;;;;;15.06;55.15;100095.81;4302598;33;32729;-86
2024/04/13 01:31:55;;;;;;;5.80;3.17;;;;;;;14.60;56.52;100097.97;4307264;33;34605;-87
2024/04/13 01:34:22;;;;;;;8.45;4.10;;;;;;;14.86;55.99;100102.59;4303153;33;33489;-87
2024/04/13 01:36:48;;;;;;;9.73;3.80;;;;;;;14.67;56.50;100108.50;4303504;33;34063;-87
2024/04/13 01:39:15;;;;;;;8.90;3.97;;;;;;;14.97;55.79;100100.97;4303835;33;33311;-88
2024/04/13 01:41:45;;;;;;;8.65;4.05;;;;;;;15.11;55.33;100095.00;4316109;33;34103;-87
2024/04/13 01:44:12;;;;;;;8.85;4.53;;;;;;;14.96;55.60;100096.59;4316942;33;34775;-87
2024/04/13 01:46:39;;;;;;;7.87;3.78;;;;;;;15.24;55.12;100102.09;4303522;33;33907;-86
2024/04/13 01:49:05;;;;;;;9.00;3.33;;;;;;;15.35;54.48;100089.13;4290711;33;33294;-87
2024/04/13 01:51:34;;;;;;;8.63;4.40;;;;;;;15.51;55.17;100085.75;4291132;33;33202;-86
2024/04/13 01:54:01;;;;;;;9.15;3.62;;;;;;;15.63;54.46;100093.69;4316889;33;34041;-87
2024/04/13 01:56:27;;;;;;;7.87;3.80;;;;;;;15.24;55.03;100089.03;4303480;33;34603;-87
2024/04/13 01:58:55;;;;;;;6.75;3.70;;;;;;;15.49;55.06;100093.59;4310000;33;33194;-86
2024/04/13 02:01:21;;;;;;;5.72;3.45;;;;;;;15.56;54.35;100089.28;4301589;33;34625;-86
2024/04/13 02:03:49;;;;;;;7.37;3.70;;;;;;;15.26;55.01;100092.53;4288724;33;34851;-87
2024/04/13 02:06:15;;;;;;;9.70;4.22;;;;;;;15.31;54.84;100090.84;4288965;33;34592;-87
2024/04/13 02:08:42;;;;;;;8.13;4.25;;;;;;;15.26;54.98;100092.53;4307716;33;33095;-87
2024/04/13 02:11:10;;;;;;;10.55;3.92;;;;;;;15.18;55.34;100091.59;4315250;33;34643;-87
2024/04/13 02:13:37;;;;;;;8.15;3.78;;;;;;;15.12;55.70;100096.78;4276799;33;34897;-86
2024/04/13 02:16:04;;;;;;;6.90;3.90;;;;;;;15.05;55.77;100101.94;4300035;33;33426;-86
2024/04/13 02:18:30;;;;;;;7.60;4.00;;;;;;;15.33;55.06;100102.16;4301616;33;33485;-86
2024/04/13 02:20:57;;;;;;;6.95;3.30;;;;;;;15.80;53.97;100096.47;4316461;33;33879;-86
2024/04/13 02:23:23;;;;;;;7.65;3.62;;;;;;;15.75;54.81;100090.31;4312766;33;34109;-86
2024/04/13 02:25:50;;;;;;;5.93;3.42;;;;;;;15.43;56.08;100097.91;4300540;33;34790;-86
2024/04/13 02:28:17;;;;;;;8.18;3.70;;;;;;;15.26;56.87;100105.59;4301821;33;33118;-86
2024/04/13 02:30:43;;;;;;;7.22;3.22;;;;;;;15.49;55.59;100098.84;4300061;33;33839;-87
2024/04/13 02:33:10;;;;;;;7.22;3.35;;;;;;;15.61;55.63;100098.03;4302711;33;35094;-86
2024/04/13 02:35:37;;;;;;;9.55;3.70;;;;;;;15.40;56.50;100106.59;4303083;33;33242;-87
2024/04/13 02:38:03;;;;;;;6.25;3.42;;;;;;;15.47;56.28;100100.53;4316323;33;34160;-86
2024/04/13 02:40:30;;;;;;;8.98;3.72;;;;;;;15.31;56.56;100101.28;4303628;33;33502;-86
2024/04/13 02:42:57;;;;;;;6.00;3.15;;;;;;;15.29;56.76;100100.38;4301968;33;33509;-86
2024/04/13 02:45:25;;;;;;;8.15;3.25;;;;;;;15.26;57.25;100101.22;4289052;33;33106;-86
2024/04/13 02:47:53;;;;;;;7.57;3.87;;;;;;;15.20;56.93;100095.09;4288513;33;33038;-87
2024/04/13 02:50:19;;;;;;;6.97;3.50;;;;;;;15.05;56.46;100096.69;4300791;33;33788;-86
2024/04/13 02:52:47;;;;;;;7.70;4.03;;;;;;;15.19;56.52;100098.53;4300553;33;33752;-86
2024/04/13 02:55:16;;;;;;;6.82;3.62;;;;;;;15.22;56.57;100098.59;4289038;33;33547;-86
2024/04/13 02:57:43;;;;;;;7.78;3.35;;;;;;;15.25;56.25;100096.00;4301863;33;34016;-85
2024/04/13 03:00:11;;;;;;;7.68;3.65;;;;;;;15.30;55.94;100097.81;4277061;33;33967;-87
2024/04/13 03:02:38;;;;;;;6.50;3.47;;;;;;;15.45;55.68;100099.66;4301671;33;35024;-86
2024/04/13 03:05:04;;;;;;;8.40;3.55;;;;;;;15.27;56.92;100102.13;4301948;33;33425;-87
2024/04/13 03:07:31;;;;;;;7.70;3.65;;;;;;;15.08;57.37;100094.13;4288781;33;34117;-86
2024/04/13 03:09:58;;;;;;;6.28;3.25;;;;;;;15.20;57.01;100097.72;4300562;33;33781;-86
2024/04/13 03:12:24;;;;;;;5.62;3.12;;;;;;;15.22;56.91;100098.59;4316270;33;32292;-86
2024/04/13 03:14:51;;;;;;;5.72;3.35;;;;;;;15.19;57.29;100102.06;4302951;33;32725;-87
2024/04/13 03:17:18;;;;;;;7.10;3.28;;;;;;;15.18;57.21;100105.50;4298901;33;32197;-87
2024/04/13 03:19:44;;;;;;;6.07;3.25;;;;;;;14.98;57.44;100107.06;4302768;33;33093;-87
2024/04/13 03:22:11;;;;;;;6.30;3.97;;;;;;;15.01;58.16;100099.28;4301620;33;33379;-87
2024/04/13 03:24:37;;;;;;;8.98;3.15;;;;;;;14.89;58.32;100105.25;4301773;33;34205;-87
2024/04/13 03:27:04;;;;;;;8.82;3.47;;;;;;;14.93;57.81;100104.41;4300439;33;32264;-86
2024/04/13 03:29:30;;;;;;;6.55;3.87;;;;;;;15.06;57.70;100101.06;4301979;33;34789;-87
2024/04/13 03:31:57;;;;;;;5.47;3.55;;;;;;;15.32;56.80;100105.66;4314842;33;33846;-87
2024/04/13 03:34:26;;;;;;;7.43;3.97;;;;;;;14.95;57.94;100107.91;4326154;33;33655;-87
2024/04/13 03:36:52;;;;;;;5.87;2.92;;;;;;;14.93;58.36;100106.16;4316090;33;33421;-86
2024/04/13 03:39:21;;;;;;;7.57;3.33;;;;;;;15.14;57.85;100105.47;4315111;33;33572;-87
2024/04/13 03:41:49;;;;;;;7.28;3.25;;;;;;;14.94;58.30;100108.78;4301936;33;32729;-86
2024/04/13 03:44:15;;;;;;;6.47;3.50;;;;;;;14.94;58.53;100106.16;4301537;33;33677;-87
2024/04/13 03:46:42;;;;;;;5.28;3.15;;;;;;;14.98;58.36;100110.56;4301644;33;33126;-87
2024/04/13 03:49:10;;;;;;;9.52;4.22;;;;;;;14.48;59.80;100113.47;4301464;33;34558;-87
2024/04/13 03:51:36;;;;;;;6.03;3.40;;;;;;;14.46;58.86;100112.53;4312165;33;34117;-86
2024/04/13 03:54:03;;;;;;;6.78;3.42;;;;;;;14.81;58.46;100114.72;4314768;33;34042;-88
2024/04/13 03:56:32;;;;;;;8.75;2.87;;;;;;;14.65;59.49;100111.06;4315325;33;34261;-87
2024/04/13 03:58:58;;;;;;;8.15;3.65;;;;;;;14.63;59.61;100120.62;4315879;33;33700;-86
2024/04/13 04:01:25;;;;;;;8.20;3.42;;;;;;;14.71;59.14;100115.50;4314940;33;32573;-87
2024/04/13 04:03:53;;;;;;;7.10;3.33;;;;;;;14.73;59.41;100124.19;4315625;33;33798;-85
2024/04/13 04:06:20;;;;;;;7.22;3.47;;;;;;;14.73;59.26;100118.97;4304037;33;33451;-86
2024/04/13 04:08:46;;;;;;;6.80;3.30;;;;;;;14.80;59.51;100115.56;4315809;33;33830;-87
2024/04/13 04:11:13;;;;;;;6.78;3.17;;;;;;;14.64;59.77;100117.16;4314511;33;33975;-86
2024/04/13 04:13:39;;;;;;;5.82;3.25;;;;;;;14.69;59.54;100114.59;4315804;33;33605;-86
2024/04/13 04:16:06;;;;;;;7.05;3.40;;;;;;;14.84;59.12;100112.13;4300541;33;32221;-86
2024/04/13 04:18:33;;;;;;;5.87;3.10;;;;;;;14.72;59.56;100112.88;4312273;33;34723;-86
2024/04/13 04:20:59;;;;;;;7.37;3.72;;;;;;;14.68;59.70;100118.06;4315610;33;34061;-86
2024/04/13 04:23:26;;;;;;;6.70;3.70;;;;;;;14.34;60.58;100120.22;4315716;33;33941;-85
2024/04/13 04:25:52;;;;;;;6.85;3.53;;;;;;;14.60;59.51;100117.97;4303722;33;34485;-87
2024/04/13 04:28:19;;;;;;;10.20;3.50;;;;;;;14.53;59.61;100124.84;4300996;33;34793;-87
2024/04/13 04:30:45;;;;;;;7.40;3.30;;;;;;;14.75;59.38;100117.28;4301002;33;33697;-88
2024/04/13 04:33:12;;;;;;;9.02;3.62;;;;;;;14.64;60.02;100124.09;4301137;33;33907;-88
2024/04/13 04:35:40;;;;;;;6.32;3.37;;;;;;;14.86;59.68;100120.00;4322086;33;33126;-85
2024/04/13 04:38:06;;;;;;;6.65;3.17;;;;;;;15.16;59.33;100130.75;4313060;33;34606;-86
2024/04/13 04:40:37;;;;;;;7.37;3.65;;;;;;;15.34;57.42;100130.03;4301617;33;33755;-86
2024/04/13 04:43:04;;;;;;;11.20;4.12;;;;;;;15.58;57.51;100138.09;4301233;33;33093;-87
2024/04/13 04:45:31;;;;;;;10.88;3.90;;;;;;;15.77;54.70;100131.31;4310489;33;33713;-87
2024/04/13 04:47:58;;;;;;;7.78;3.80;;;;;;;15.91;54.10;100139.25;4315256;33;33860;-86
2024/04/13 04:50:26;;;;;;;5.40;3.05;;;;;;;16.37;54.28;100136.03;4301557;33;33767;-86
2024/04/13 04:52:53;;;;;;;7.80;3.37;;;;;;;17.03;54.11;100132.75;4313060;33;33919;-86
2024/04/13 04:55:19;;;;;;;5.72;2.75;;;;;;;17.44;53.09;100129.31;4317251;33;34173;-86
2024/04/13 04:57:46;;;;;;;9.13;3.65;;;;;;;17.55;52.99;100136.31;4316596;33;33655;-87
2024/04/13 05:00:14;;;;;;;6.28;3.10;;;;;;;17.78;51.38;100134.59;4316204;33;34028;-86
2024/04/13 05:02:41;;;;;;;7.00;3.67;;;;;;;18.50;48.33;100131.78;4307756;33;33766;-86
2024/04/13 05:05:08;;;;;;;8.15;3.90;;;;;;;17.98;47.90;100132.78;4313269;33;33520;-87
2024/04/13 05:07:35;;;;;;;7.80;3.35;;;;;;;18.27;47.87;100136.25;4302629;33;34064;-87
2024/04/13 05:10:02;;;;;;;8.00;3.53;;;;;;;18.28;47.17;100130.97;4302963;33;33743;-85
2024/04/13 05:12:28;;;;;;;6.57;3.35;;;;;;;18.68;46.71;100130.84;4321212;33;33178;-87
2024/04/13 05:14:55;;;;;;;6.80;3.33;;;;;;;18.56;46.13;100123.00;4316924;33;33394;-87
2024/04/13 05:17:22;;;;;;;9.90;3.37;;;;;;;18.56;47.19;100131.78;4317046;33;34364;-86
2024/04/13 05:19:49;;;;;;;7.28;3.33;;;;;;;18.48;45.87;100128.28;4307161;33;33676;-86
2024/04/13 05:22:15;;;;;;;9.10;3.60;;;;;;;18.18;46.55;100131.87;4303063;33;34333;-85
2024/04/13 05:24:42;;;;;;;8.98;3.37;;;;;;;18.40;47.23;100130.06;4302535;33;33245;-86
2024/04/13 05:27:09;;;;;;;8.20;3.25;;;;;;;18.26;46.84;100132.75;4302153;33;34642;-86
2024/04/13 05:29:38;;;;;;;8.63;4.57;;;;;;;18.05;47.75;100138.03;4309991;33;34988;-85
2024/04/13 05:32:05;;;;;;;8.88;3.40;;;;;;;18.10;47.45;100141.53;4317011;33;34716;-86
2024/04/13 05:34:32;;;;;;;6.07;2.92;;;;;;;17.91;47.51;100136.31;4316415;33;33479;-87
2024/04/13 05:36:58;;;;;;;10.63;3.55;;;;;;;18.09;47.73;100139.78;4316825;33;33841;-87
2024/04/13 05:39:28;;;;;;;9.32;3.70;;;;;;;17.75;47.70;100145.94;4310384;33;34983;-86
2024/04/13 05:41:54;;;;;;;7.55;3.17;;;;;;;18.14;47.28;100141.50;4315026;33;32488;-85
2024/04/13 05:44:21;;;;;;;7.03;3.17;;;;;;;18.14;47.26;100143.25;4304151;33;33140;-85
2024/04/13 05:46:47;;;;;;;7.57;3.70;;;;;;;17.81;47.80;100145.09;4315578;33;34868;-87
2024/04/13 05:49:14;;;;;;;10.10;3.60;;;;;;;17.56;48.93;100148.56;4316424;33;35010;-84
2024/04/13 05:51:40;;;;;;;8.30;3.60;;;;;;;18.19;48.04;100149.41;4316030;33;33959;-85
2024/04/13 05:54:07;;;;;;;7.12;4.00;;;;;;;17.55;48.61;100152.06;4315046;33;33374;-84
2024/04/13 05:56:34;;;;;;;7.45;3.42;;;;;;;17.67;48.61;100162.53;4302228;33;34136;-86
2024/04/13 05:59:00;;;;;;;7.80;4.03;;;;;;;17.80;49.33;100161.69;4289264;33;33775;-85
2024/04/13 06:01:28;;;;;;;9.52;3.75;;;;;;;17.54;48.70;100161.69;4303399;33;33999;-84
2024/04/13 06:03:55;;;;;;;10.23;4.22;;;;;;;17.63;49.01;100164.28;4302242;33;33572;-84
2024/04/13 06:06:22;;;;;;;9.57;4.30;;;;;;;17.56;48.97;100159.91;4303588;33;33763;-85
2024/04/13 06:08:48;;;;;;;10.40;3.85;;;;;;;17.37;50.05;100169.50;4307287;33;33981;-84
2024/04/13 06:11:15;;;;;;;8.15;3.47;;;;;;;18.12;48.66;100163.41;4288775;33;34324;-85
2024/04/13 06:13:42;;;;;;;8.88;3.25;;;;;;;17.52;48.98;100166.03;4293627;33;33708;-84
2024/04/13 06:16:08;;;;;;;7.43;3.30;;;;;;;17.67;49.85;100167.78;4316094;33;34654;-86
2024/04/13 06:18:35;;;;;;;8.80;3.53;;;;;;;17.86;49.20;100169.56;4303080;33;33435;-84
2024/04/13 06:21:02;;;;;;;9.57;3.60;;;;;;;18.09;49.69;100174.78;4303475;33;33705;-85
2024/04/13 06:23:29;;;;;;;8.45;4.05;;;;;;;17.85;48.88;100174.81;4318595;33;34086;-86
2024/04/13 06:25:56;;;;;;;12.60;4.20;;;;;;;17.91;49.14;100180.03;4319039;33;33592;-85
2024/04/13 06:28:26;;;;;;;8.38;3.30;;;;;;;18.09;48.54;100181.78;4305935;33;34902;-85
2024/04/13 06:30:53;;;;;;;6.53;3.40;;;;;;;18.32;48.30;100179.97;4303790;33;33956;-84
2024/04/13 06:33:20;;;;;;;8.23;3.60;;;;;;;18.11;48.68;100180.03;4313635;33;33805;-85
2024/04/13 06:35:48;;;;;;;12.40;3.83;;;;;;;17.96;48.61;100176.56;4316581;33;33659;-86
2024/04/13 06:38:18;;;;;;;10.27;3.97;;;;;;;17.70;49.38;100178.28;4302635;33;33478;-86
2024/04/13 06:40:44;;;;;;;8.32;2.97;;;;;;;18.10;48.96;100180.88;4295127;33;33956;-85
2024/04/13 06:43:11;;;;;;;8.50;3.30;;;;;;;18.48;47.54;100171.16;4316391;33;33908;-85
2024/04/13 06:45:38;;;;;;;9.93;3.83;;;;;;;18.06;49.82;100187.03;4316560;33;32954;-86
2024/04/13 06:48:05;;;;;;;9.13;3.58;;;;;;;18.47;48.80;100182.53;4316164;33;34395;-86
2024/04/13 06:50:32;;;;;;;7.30;2.97;;;;;;;18.42;47.39;100179.06;4312581;33;33931;-85
2024/04/13 06:52:58;;;;;;;10.68;4.75;;;;;;;18.41;48.47;100177.34;4309197;33;33350;-85
2024/04/13 06:55:26;;;;;;;10.07;5.55;;;;;;;18.51;48.78;100179.91;4303336;33;33367;-85
2024/04/13 06:57:52;;;;;;;16.70;7.35;;;;;;;18.65;46.75;100180.75;4316381;33;35114;-86
2024/04/13 07:00:19;;;;;;;20.05;9.60;;;;;;;18.78;47.93;100179.84;4302624;33;33511;-87
2024/04/13 07:02:47;;;;;;;22.77;15.90;;;;;;;19.05;46.50;100184.06;4301576;33;32329;-86
2024/04/13 07:05:13;;;;;;;7.65;2.60;;;;;;;18.98;46.17;100184.13;4308085;33;33193;-85
2024/04/13 07:07:40;;;;;;;7.18;2.50;;;;;;;19.09;45.19;100187.56;4301724;33;33958;-86
2024/04/13 07:10:07;;;;;;;7.60;2.65;;;;;;;19.34;44.87;100181.28;4301898;33;33606;-85
2024/04/13 07:12:33;;;;;;;9.52;2.65;;;;;;;19.58;44.11;100181.97;4288543;33;34271;-85
2024/04/13 07:15:00;;;;;;;10.13;3.05;;;;;;;19.56;44.07;100175.87;4288652;33;33541;-86
2024/04/13 07:17:27;;;;;;;6.53;2.30;;;;;;;19.89;43.96;100167.72;4301673;33;34924;-85
2024/04/13 07:19:54;;;;;;;6.95;2.40;;;;;;;19.81;43.05;100182.72;4298639;33;32792;-85
2024/04/13 07:22:20;;;;;;;9.25;2.40;;;;;;;20.33;42.09;100182.19;4312258;33;33388;-85
2024/04/13 07:24:47;;;;;;;6.50;2.40;;;;;;;20.22;41.53;100176.16;4314622;33;33778;-85
2024/04/13 07:27:14;;;;;;;7.55;2.62;;;;;;;20.28;41.61;100178.75;4320313;33;34176;-85
2024/04/13 07:29:40;;;;;;;9.80;4.05;;;;;;;20.41;42.06;100172.44;4289874;33;32481;-84
2024/04/13 07:32:07;;;;;;;4.82;2.08;;;;;;;20.72;41.18;100174.75;4301130;33;33858;-86
2024/04/13 07:34:36;;;;;;;8.27;2.25;;;;;;;20.69;39.88;100180.06;4301538;33;33973;-86
2024/04/13 07:37:02;;;;;;;6.12;2.22;;;;;;;20.93;39.99;100180.63;4304276;33;33765;-86
2024/04/13 07:39:29;;;;;;;7.12;2.30;;;;;;;20.65;40.84;100183.63;4302853;33;34774;-86
2024/04/13 07:41:56;;;;;;;8.20;2.40;;;;;;;20.92;39.96;100179.78;4311483;33;33066;-86
2024/04/13 07:44:22;;;;;;;8.77;2.60;;;;;;;21.16;40.34;100178.56;4306519;33;34688;-87
2024/04/13 07:46:49;;;;;;;9.60;2.62;;;;;;;21.24;39.73;100179.31;4308977;33;34874;-87
2024/04/13 07:49:16;;;;;;;9.18;2.47;;;;;;;21.26;39.21;100180.16;4330551;33;34484;-88
2024/04/13 07:51:43;;;;;;;10.30;2.20;;;;;;;21.24;40.13;100174.03;4329389;33;33297;-86
2024/04/13 07:54:10;;;;;;;10.07;2.42;;;;;;;21.37;40.21;100173.00;4317439;33;34701;-86
2024/04/13 07:56:36;;;;;;;7.55;2.22;;;;;;;21.47;39.35;100170.22;4330560;33;34174;-87
2024/04/13 07:59:03;;;;;;;6.65;2.30;;;;;;;21.59;39.07;100175.28;4306470;33;34006;-87
2024/04/13 08:01:29;;;;;;;8.35;2.67;;;;;;;21.61;39.93;100174.38;4301464;33;33046;-86
2024/04/13 08:03:57;;;;;;;6.18;2.72;;;;;;;21.92;38.46;100168.56;4301275;33;33682;-87
2024/04/13 08:06:27;;;;;;;6.28;2.58;;;;;;;21.78;38.64;100166.19;4288311;33;34016;-87
2024/04/13 08:08:54;;;;;;;7.87;2.58;;;;;;;21.70;39.32;100172.47;4301141;33;34137;-87
2024/04/13 08:11:20;;;;;;;8.75;2.15;;;;;;;21.83;39.23;100166.97;4300864;33;33578;-87
2024/04/13 08:13:47;;;;;;;9.10;2.60;;;;;;;22.08;38.54;100174.44;4302050;33;34766;-86
2024/04/13 08:16:13;;;;;;;5.68;2.75;;;;;;;22.32;38.07;100179.31;4301019;33;34034;-87
2024/04/13 08:18:40;;;;;;;7.25;2.70;;;;;;;22.37;38.53;100176.59;4301022;33;33489;-85
2024/04/13 08:21:06;;;;;;;7.55;2.15;;;;;;;22.44;38.88;100172.94;4301227;33;33480;-85
2024/04/13 08:23:33;;;;;;;9.75;3.22;;;;;;;22.73;39.18;100174.97;4301259;33;34542;-87
2024/04/13 08:26:04;;;;;;;7.32;2.75;;;;;;;22.56;38.64;100171.81;4301127;33;34983;-86
2024/04/13 08:28:31;;;;;;;7.37;2.50;;;;;;;22.67;38.35;100172.47;4302520;33;33584;-86
2024/04/13 08:31:02;;;;;;;8.63;2.70;;;;;;;22.68;38.75;100170.69;4302072;33;34077;-86
2024/04/13 08:33:29;;;;;;;7.25;2.55;;;;;;;22.14;39.38;100171.72;4295365;33;34033;-86
2024/04/13 08:36:06;;;;;;;9.20;3.10;;;;;;;22.17;40.94;100176.97;4313397;33;34046;-86
2024/04/13 08:38:33;;;;;;;8.57;2.20;;;;;;;22.62;38.42;100165.53;4308429;33;32532;-87
2024/04/13 08:41:04;;;;;;;5.72;2.20;;;;;;;22.59;39.13;100166.47;4311525;33;33123;-87
2024/04/13 08:43:30;;;;;;;5.72;2.72;;;;;;;23.10;38.80;100168.91;4297695;33;34315;-85
2024/04/13 08:46:03;;;;;;;7.70;2.72;;;;;;;22.85;38.52;100170.34;4324131;33;34961;-85
2024/04/13 08:48:30;;;;;;;6.03;2.47;;;;;;;22.53;39.37;100161.28;4314805;33;34699;-86
2024/04/13 08:50:58;;;;;;;7.70;2.65;;;;;;;22.71;39.01;100173.25;4290062;33;32570;-86
2024/04/13 08:53:25;;;;;;;9.98;2.60;;;;;;;22.89;39.31;100166.72;4288946;33;33158;-85
2024/04/13 08:55:53;;;;;;;5.20;2.35;;;;;;;22.68;39.17;100160.09;4300690;33;34830;-86
2024/04/13 08:58:22;;;;;;;6.80;2.45;;;;;;;22.91;38.08;100168.44;4290312;33;33950;-85
2024/04/13 09:00:52;;;;;;;8.73;2.05;;;;;;;22.91;38.52;100168.44;4305205;33;33477;-85
2024/04/13 09:03:21;;;;;;;7.25;2.62;;;;;;;22.92;38.93;100169.31;4309796;33;33654;-87
2024/04/13 09:05:48;;;;;;;6.37;3.05;;;;;;;22.98;38.35;100162.13;4305360;33;34627;-86
2024/04/13 09:08:15;;;;;;;7.47;2.42;;;;;;;22.91;39.39;100163.16;4295346;33;34530;-86
2024/04/13 09:10:45;;;;;;;8.63;2.78;;;;;;;22.80;38.55;100162.47;4305553;33;34080;-86
2024/04/13 09:13:12;;;;;;;7.22;2.30;;;;;;;22.49;38.62;100147.25;4316891;33;33539;-86
2024/04/13 09:15:40;;;;;;;6.28;2.45;;;;;;;22.56;38.34;100155.94;4302933;33;35142;-86
2024/04/13 09:18:07;;;;;;;9.98;5.05;;;;;;;22.89;37.75;100156.16;4314935;33;33975;-85
2024/04/13 09:20:34;;;;;;;7.60;3.55;;;;;;;23.30;36.52;100152.59;4309912;33;33667;-87
2024/04/13 09:23:01;;;;;;;10.65;2.70;;;;;;;;;;4306668;33;33910;-86
2024/04/13 09:25:27;;;;;;;7.95;2.20;;;;;;;23.63;37.77;100158.81;4304864;33;34008;-85
2024/04/13 09:28:02;;;;;;;5.85;2.17;;;;;;;23.76;37.30;100162.09;4314520;33;33950;-85
2024/04/13 09:30:28;;;;;;;7.25;2.42;;;;;;;23.77;36.42;100151.44;4298328;33;33203;-85
2024/04/13 09:33:03;;;;;;;7.25;1.83;;;;;;;23.82;36.74;100147.81;4290007;33;32519;-85
2024/04/13 09:35:29;;;;;;;6.22;2.58;;;;;;;24.01;35.40;100146.41;4297009;33;34003;-87
2024/04/13 09:37:57;;;;;;;7.82;2.28;;;;;;;23.86;34.88;100138.87;4302432;33;33865;-88
2024/04/13 09:40:24;;;;;;;9.23;2.20;;;;;;;24.34;34.53;100149.06;4302051;33;32764;-85
2024/04/13 09:42:51;;;;;;;6.07;1.95;;;;;;;24.04;34.79;100141.03;4312295;33;34801;-88
2024/04/13 09:45:19;;;;;;;6.53;1.95;;;;;;;24.20;33.88;100131.75;4297712;33;34550;-88
2024/04/13 09:47:46;;;;;;;6.28;2.00;;;;;;;24.03;34.45;100132.22;4290724;33;33902;-87
2024/04/13 09:50:14;;;;;;;4.35;1.58;;;;;;;23.92;34.54;100122.84;4317126;33;33301;-87
2024/04/13 09:52:41;;;;;;;7.40;1.65;;;;;;;24.07;32.63;100126.84;4314234;33;34690;-87
2024/04/13 09:55:07;;;;;;;5.03;1.62;;;;;;;24.45;32.17;100123.16;4316789;33;34894;-86
2024/04/13 09:57:34;;;;;;;7.03;1.85;;;;;;;24.56;32.09;100114.91;4316756;33;34016;-87
2024/04/13 10:00:01;;;;;;;7.40;2.08;;;;;;;24.63;32.70;100116.44;4299443;33;31550;-87
2024/04/13 10:02:28;;;;;;;5.80;1.98;;;;;;;25.04;32.69;100116.94;4294411;33;34023;-86
2024/04/13 10:04:55;;;;;;;6.75;2.40;;;;;;;24.72;33.39;100122.34;4302349;33;34572;-88
2024/04/13 10:07:24;;;;;;;8.13;2.10;;;;;;;24.62;34.07;100118.22;4299166;33;33599;-86
2024/04/13 10:09:56;;;;;;;5.85;2.08;;;;;;;24.30;34.02;100118.25;4295219;33;33517;-87
2024/04/13 10:12:29;;;;;;;6.03;1.90;;;;;;;24.48;33.13;100109.81;4288733;33;33651;-87
2024/04/13 10:14:58;;;;;;;5.80;2.12;;;;;;;24.93;34.89;100112.00;4288752;33;34110;-87
2024/04/13 10:17:25;;;;;;;7.35;2.05;;;;;;;25.01;33.74;100102.00;4301772;33;33612;-87
2024/04/13 10:19:52;;;;;;;7.12;1.80;;;;;;;24.86;33.65;100107.81;4327351;33;33428;-87
2024/04/13 10:22:21;;;;;;;6.43;2.00;;;;;;;25.56;33.00;100094.91;4303107;33;32322;-87
2024/04/13 10:25:01;;;;;;;6.78;2.10;;;;;;;25.39;32.67;100086.66;4309468;33;34647;-88
2024/04/13 10:27:32;;;;;;;5.87;1.67;;;;;;;24.98;33.44;100096.78;4307894;33;33626;-88
2024/04/13 10:30:01;;;;;;;5.75;1.95;;;;;;;25.10;32.73;100090.25;4307361;33;31885;-85
2024/04/13 10:32:28;;;;;;;4.93;1.60;;;;;;;24.60;33.34;100093.53;4306177;33;33944;-86
2024/04/13 10:34:58;;;;;;;3.17;1.37;;;;;;;24.72;31.86;100090.50;4320452;33;33635;-87
2024/04/13 10:37:26;;;;;;;5.93;1.20;;;;;;;25.27;30.68;100076.44;4310508;33;33914;-86
2024/04/13 10:39:57;;;;;;;4.95;1.52;;;;;;;25.17;30.83;100073.22;4312630;33;34239;-87
2024/04/13 10:42:34;;;;;;;4.80;1.30;;;;;;;24.68;31.28;100072.97;4300920;33;33819;-85
2024/04/13 10:45:11;;;;;;;4.82;1.50;;;;;;;25.43;32.25;100067.06;4301824;33;35134;-85
2024/04/13 10:47:39;;;;;;;4.78;1.35;;;;;;;25.13;30.93;100069.81;4313658;33;34052;-85
2024/04/13 10:50:17;;;;;;;6.30;1.40;;;;;;;25.02;31.04;100057.78;4302062;33;33562;-87
2024/04/13 10:52:44;;;;;;;5.25;1.60;;;;;;;25.02;31.44;100052.47;4301277;33;33883;-84
2024/04/13 10:55:13;;;;;;;6.78;1.67;;;;;;;25.59;30.42;100054.13;4312636;33;34192;-85
2024/04/13 10:57:41;;;;;;;5.57;1.58;;;;;;;25.66;29.96;100043.22;4304929;33;33271;-86
2024/04/13 11:00:08;;;;;;;4.25;1.75;;;;;;;25.79;31.56;100041.03;4300653;33;32996;-84
2024/04/13 11:02:38;;;;;;;7.20;1.85;;;;;;;25.65;30.08;100044.16;4309329;33;34437;-85
2024/04/13 11:05:06;;;;;;;7.25;1.67;;;;;;;25.84;30.96;100040.87;4305022;33;34577;-86
2024/04/13 11:07:32;;;;;;;4.32;1.40;;;;;;;25.32;30.20;100026.75;4307056;33;33863;-86
2024/04/13 11:09:59;;;;;;;5.70;1.48;;;;;;;25.60;33.23;100040.78;4308385;33;33141;-84
2024/04/13 11:12:25;;;;;;;6.87;1.85;;;;;;;25.97;29.93;100028.88;4311937;33;34607;-83
2024/04/13 11:14:52;;;;;;;6.07;1.62;;;;;;;25.88;32.19;100023.91;4310839;33;33491;-85
2024/04/13 11:17:19;;;;;;;4.80;1.30;;;;;;;25.96;29.57;100024.50;4317852;33;33972;-84
2024/04/13 11:19:45;;;;;;;5.35;1.77;;;;;;;25.98;29.51;100019.97;4315695;33;33383;-87
2024/04/13 11:22:13;;;;;;;4.18;1.27;;;;;;;26.21;29.45;100029.75;4306216;33;33978;-86
2024/04/13 11:24:41;;;;;;;6.97;1.80;;;;;;;26.17;29.81;100023.66;4295967;33;33953;-86